Time;durP1;ratioP1;P1;durP2;ratioP2;P2;SDS_P1;SDS_P2;PMS_P1;PMS_P2;Temp;Humidity;BMP_temperature;BMP_pressure;BME280_temperature;BME280_humidity;BME280_pressure;Samples;Min_cycle;Max_cycle;Signal;HPM_P1;HPM_P2
2023/08/12 00:02:04;;;;;;;27.40;15.50;;;;;;;16.02;65.76;101054.05;108960;1279;22036;-79
2023/08/12 00:04:38;;;;;;;24.60;12.90;;;;;;;16.01;65.96;101053.95;108914;1277;21961;-79
2023/08/12 00:07:16;;;;;;;19.30;13.00;;;;;;;15.97;66.01;101054.80;108574;1283;23834;-79
2023/08/12 00:09:49;;;;;;;25.20;13.50;;;;;;;15.94;65.88;101056.17;108876;1277;23606;-79
2023/08/12 00:12:25;;;;;;;19.60;13.60;;;;;;;15.91;66.08;101051.09;108572;1282;21999;-78
2023/08/12 00:14:59;;;;;;;20.40;14.40;;;;;;;15.86;66.16;101050.46;108366;1286;22251;-83
2023/08/12 00:17:41;;;;;;;21.10;14.50;;;;;;;15.83;66.36;101049.55;108540;1287;23068;-84
2023/08/12 00:20:16;;;;;;;21.60;15.90;;;;;;;15.79;66.64;101051.47;108791;1282;23746;-82
2023/08/12 00:23:04;;;;;;;19.40;14.60;;;;;;;15.78;66.77;101047.84;108878;1277;22012;-83
2023/08/12 00:25:43;;;;;;;23.60;14.00;;;;;;;15.76;66.75;101052.84;109050;1278;22756;-84
2023/08/12 00:28:16;;;;;;;21.60;14.40;;;;;;;15.75;66.77;101054.65;109131;1279;21989;-82
2023/08/12 00:30:49;;;;;;;22.10;13.90;;;;;;;15.76;66.76;101057.61;109070;1273;23001;-83
2023/08/12 00:33:29;;;;;;;23.80;15.30;;;;;;;15.71;66.88;101057.79;109594;1268;22694;-82
2023/08/12 00:36:06;;;;;;;37.40;16.30;;;;;;;15.69;67.22;101059.83;109340;1274;21960;-83
2023/08/12 00:38:38;;;;;;;;;;;;;;;15.67;67.34;101058.35;109513;1274;22046;-81
2023/08/12 00:41:15;;;;;;;29.40;15.70;;;;;;;15.55;67.44;101055.77;109250;1278;23065;-83
2023/08/12 00:43:52;;;;;;;37.30;15.80;;;;;;;15.52;67.40;101058.86;109303;1278;23076;-84
2023/08/12 00:46:47;;;;;;;23.60;14.70;;;;;;;15.52;67.64;101062.23;109225;1277;22702;-84
2023/08/12 00:49:23;;;;;;;38.80;16.60;;;;;;;15.49;67.60;101059.73;109158;1277;21986;-84
2023/08/12 00:51:57;;;;;;;20.30;15.50;;;;;;;15.49;67.87;101058.85;109056;1281;23653;-85
2023/08/12 00:54:32;;;;;;;19.50;15.10;;;;;;;15.50;67.90;101058.80;109295;1276;23666;-81
2023/08/12 00:57:20;;;;;;;19.20;15.30;;;;;;;15.48;67.90;101061.33;109233;1275;21980;-84
2023/08/12 00:59:57;;;;;;;20.90;14.40;;;;;;;15.46;67.90;101066.19;109849;1270;21990;-83
2023/08/12 01:02:41;;;;;;;19.90;13.60;;;;;;;15.44;67.72;101067.85;109900;1270;22038;-82
2023/08/12 01:05:11;;;;;;;23.70;14.80;;;;;;;15.41;67.77;101065.02;109755;1270;23606;-82
2023/08/12 01:07:46;;;;;;;22.80;14.20;;;;;;;15.39;67.87;101064.04;109611;1270;22011;-83
2023/08/12 01:10:39;;;;;;;19.20;13.00;;;;;;;15.38;67.95;101068.14;110111;1267;23711;-83
2023/08/12 01:13:40;;;;;;;29.50;15.80;;;;;;;15.33;67.89;101062.39;109961;1269;23650;-82
2023/08/12 01:16:14;;;;;;;19.50;15.10;;;;;;;15.28;67.92;101059.66;109553;1273;21982;-82
2023/08/12 01:18:50;;;;;;;16.90;14.70;;;;;;;15.21;68.00;101058.55;109490;1273;22330;-84
2023/08/12 01:21:30;;;;;;;20.60;14.80;;;;;;;15.17;68.17;101057.34;109715;1273;21997;-83
2023/08/12 01:24:08;;;;;;;20.30;15.00;;;;;;;15.14;68.32;101057.13;109689;1273;22011;-83
2023/08/12 01:26:42;;;;;;;17.80;14.40;;;;;;;15.12;68.25;101052.15;109808;1269;22613;-81
2023/08/12 01:29:12;;;;;;;20.90;15.10;;;;;;;15.10;68.22;101049.45;109823;1270;21976;-82
2023/08/12 01:32:06;;;;;;;19.50;17.00;;;;;;;15.08;68.41;101047.23;109582;1272;21985;-83
2023/08/12 01:35:23;;;;;;;20.60;15.50;;;;;;;15.06;68.57;101045.77;109953;1268;22452;-83
2023/08/12 01:38:04;;;;;;;23.40;15.20;;;;;;;15.00;68.54;101047.08;109523;1273;21997;-82
2023/08/12 01:40:38;;;;;;;19.30;15.30;;;;;;;14.95;68.42;101050.11;109424;1273;21986;-82
2023/08/12 01:43:22;;;;;;;18.80;15.50;;;;;;;14.87;68.43;101051.34;109350;1273;23028;-81
2023/08/12 01:45:56;;;;;;;20.10;16.90;;;;;;;14.76;68.57;101046.75;109505;1273;21970;-83
2023/08/12 01:48:33;;;;;;;16.60;14.80;;;;;;;14.68;68.75;101045.35;109457;1273;22156;-82
2023/08/12 01:51:04;;;;;;;20.60;15.60;;;;;;;14.62;68.84;101044.73;109804;1267;22994;-86
2023/08/12 01:53:41;;;;;;;21.20;15.90;;;;;;;14.56;69.06;101044.29;110062;1267;21977;-83
2023/08/12 01:56:17;;;;;;;26.70;16.00;;;;;;;14.50;69.32;101044.85;109981;1268;21993;-82
2023/08/12 01:58:50;;;;;;;18.20;16.30;;;;;;;14.47;69.59;101043.95;110214;1267;21975;-83
2023/08/12 02:01:25;;;;;;;19.20;15.70;;;;;;;14.45;69.66;101044.36;110157;1267;23063;-82
2023/08/12 02:04:01;;;;;;;20.60;15.70;;;;;;;14.44;69.81;101045.95;110096;1266;21998;-84
2023/08/12 02:06:37;;;;;;;;;;;;;;;14.43;69.90;101048.33;110086;1267;22037;-84
2023/08/12 02:09:15;;;;;;;17.90;15.70;;;;;;;14.32;70.08;101047.58;110096;1267;22122;-83
2023/08/12 02:11:52;;;;;;;22.70;15.40;;;;;;;14.32;70.21;101051.08;110314;1267;23637;-83
2023/08/12 02:14:21;;;;;;;19.60;15.20;;;;;;;14.33;70.22;101048.71;109883;1268;21973;-83
2023/08/12 02:16:55;;;;;;;17.90;16.10;;;;;;;14.37;70.34;101051.55;110279;1268;21994;-82
2023/08/12 02:19:28;;;;;;;23.40;15.60;;;;;;;14.41;70.36;101048.92;109764;1268;23053;-83
2023/08/12 02:22:01;;;;;;;31.60;15.00;;;;;;;14.46;70.16;101046.25;109412;1276;21996;-84
2023/08/12 02:24:33;;;;;;;21.20;15.80;;;;;;;14.48;70.15;101043.19;109365;1276;24314;-82
2023/08/12 02:27:13;;;;;;;21.40;15.50;;;;;;;14.48;69.82;101039.33;109098;1279;22011;-82
2023/08/12 02:29:43;;;;;;;27.00;16.40;;;;;;;14.50;69.81;101038.06;108795;1283;23008;-83
2023/08/12 02:32:16;;;;;;;19.50;16.00;;;;;;;14.52;69.81;101039.71;108836;1280;22852;-81
2023/08/12 02:35:01;;;;;;;16.70;14.80;;;;;;;14.53;69.90;101042.98;108953;1280;22001;-82
2023/08/12 02:37:39;;;;;;;17.10;15.50;;;;;;;14.51;69.71;101045.69;109100;1276;21990;-81
2023/08/12 02:40:14;;;;;;;20.90;15.30;;;;;;;14.48;69.74;101041.61;108872;1277;22013;-82
2023/08/12 02:42:48;;;;;;;19.50;16.40;;;;;;;14.46;69.59;101034.00;108999;1274;22409;-82
2023/08/12 02:45:20;;;;;;;19.70;14.00;;;;;;;14.40;69.66;101022.36;109523;1272;22761;-81
2023/08/12 02:47:51;;;;;;;20.60;15.90;;;;;;;14.47;69.76;101038.87;109972;1266;23206;-82
2023/08/12 02:50:21;;;;;;;29.90;15.90;;;;;;;14.45;69.77;101039.14;110308;1266;23764;-82
2023/08/12 02:52:52;;;;;;;17.40;14.90;;;;;;;14.43;69.69;101037.83;109784;1267;22003;-82
2023/08/12 02:55:24;;;;;;;32.40;16.60;;;;;;;14.40;69.75;101039.32;109861;1272;22005;-81
2023/08/12 02:58:01;;;;;;;33.00;18.90;;;;;;;14.41;70.05;101038.41;109571;1273;22446;-83
2023/08/12 03:00:35;;;;;;;32.60;16.70;;;;;;;14.42;70.06;101034.71;109813;1272;22190;-83
2023/08/12 03:03:15;;;;;;;23.20;16.10;;;;;;;14.42;70.03;101032.77;109512;1273;22026;-81
2023/08/12 03:05:56;;;;;;;22.20;16.50;;;;;;;14.41;70.10;101026.48;109401;1277;23875;-82
2023/08/12 03:08:29;;;;;;;20.30;16.50;;;;;;;14.41;70.02;101027.20;109422;1276;22742;-81
2023/08/12 03:11:02;;;;;;;31.70;17.60;;;;;;;14.41;70.03;101029.84;109383;1272;21951;-81
2023/08/12 03:13:42;;;;;;;30.60;17.10;;;;;;;14.40;70.04;101030.57;109452;1275;22008;-82
2023/08/12 03:16:24;;;;;;;30.40;16.90;;;;;;;14.39;70.19;101034.10;109603;1273;23053;-83
2023/08/12 03:18:54;;;;;;;18.60;16.20;;;;;;;14.40;70.05;101033.75;109664;1275;22858;-83
2023/08/12 03:21:29;;;;;;;20.90;15.50;;;;;;;14.42;70.11;101035.25;109609;1275;21967;-81
2023/08/12 03:24:04;;;;;;;28.30;18.00;;;;;;;14.44;70.40;101037.07;109777;1270;21985;-83
2023/08/12 03:26:34;;;;;;;28.80;17.20;;;;;;;14.46;70.40;101039.77;110198;1269;21969;-83
2023/08/12 03:29:09;;;;;;;32.90;16.60;;;;;;;14.48;70.28;101042.66;109960;1270;23596;-83
2023/08/12 03:31:41;;;;;;;35.10;22.50;;;;;;;14.49;70.27;101043.31;110081;1268;22006;-82
2023/08/12 03:34:24;;;;;;;25.40;22.60;;;;;;;14.50;70.22;101038.08;109747;1272;22152;-82
2023/08/12 03:37:01;;;;;;;26.30;18.10;;;;;;;14.51;70.27;101032.77;109821;1273;21981;-81
2023/08/12 03:39:36;;;;;;;22.10;16.20;;;;;;;14.52;70.45;101029.36;109819;1272;21999;-81
2023/08/12 03:42:12;;;;;;;28.10;17.90;;;;;;;14.55;70.39;101029.94;109191;1274;21980;-83
2023/08/12 03:44:49;;;;;;;18.60;15.60;;;;;;;14.57;70.21;101035.45;109722;1268;21989;-81
2023/08/12 03:47:26;;;;;;;17.80;15.00;;;;;;;14.56;70.01;101037.77;109252;1276;22085;-82
2023/08/12 03:50:03;;;;;;;20.60;16.50;;;;;;;14.54;69.94;101038.77;109087;1278;22385;-81
2023/08/12 03:52:39;;;;;;;19.80;15.10;;;;;;;14.51;69.93;101036.23;109210;1276;21981;-83
2023/08/12 03:55:11;;;;;;;19.00;14.90;;;;;;;14.53;70.00;101038.96;109476;1276;21781;-82
2023/08/12 03:57:46;;;;;;;21.20;15.60;;;;;;;14.57;70.01;101037.56;109267;1276;22053;-82
2023/08/12 04:00:17;;;;;;;22.60;15.80;;;;;;;14.61;69.90;101038.11;109471;1272;23699;-82
2023/08/12 04:02:48;;;;;;;17.50;15.60;;;;;;;14.66;69.82;101038.61;109812;1271;22020;-84
2023/08/12 04:05:22;;;;;;;40.00;36.00;;;;;;;14.71;69.87;101032.80;110137;1266;21944;-82
2023/08/12 04:07:56;;;;;;;24.70;16.70;;;;;;;14.75;69.69;101027.70;110163;1264;22024;-83
2023/08/12 04:10:26;;;;;;;20.10;14.60;;;;;;;14.79;69.59;101031.20;110602;1264;21833;-82
2023/08/12 04:12:56;;;;;;;17.30;15.50;;;;;;;14.83;69.45;101033.11;110556;1264;21992;-83
2023/08/12 04:15:30;;;;;;;20.90;15.60;;;;;;;14.87;69.19;101032.39;110638;1265;23028;-83
2023/08/12 04:18:01;;;;;;;31.40;14.80;;;;;;;14.91;68.97;101030.49;110458;1264;21981;-83
2023/08/12 04:20:34;;;;;;;22.30;13.80;;;;;;;14.94;68.92;101027.21;110819;1263;21980;-83
2023/08/12 04:23:07;;;;;;;18.90;12.90;;;;;;;14.98;68.81;101024.56;109743;1272;21995;-83
2023/08/12 04:25:41;;;;;;;17.70;14.10;;;;;;;15.02;68.67;101022.60;109648;1269;21973;-82
2023/08/12 04:28:18;;;;;;;14.70;11.80;;;;;;;15.05;68.62;101020.54;109842;1269;22000;-83
2023/08/12 04:30:53;;;;;;;25.50;13.00;;;;;;;15.09;68.57;101018.98;109652;1272;21911;-83
2023/08/12 04:33:26;;;;;;;19.80;13.40;;;;;;;15.14;68.40;101019.13;109492;1273;22313;-84
2023/08/12 04:36:08;;;;;;;14.40;11.60;;;;;;;15.15;68.17;101016.42;109644;1272;22014;-82
2023/08/12 04:38:43;;;;;;;20.30;11.50;;;;;;;15.19;67.99;101015.89;109349;1275;21993;-82
2023/08/12 04:41:19;;;;;;;17.20;12.40;;;;;;;15.23;67.99;101013.05;108984;1280;22004;-83
2023/08/12 04:43:50;;;;;;;15.70;12.20;;;;;;;15.27;67.75;101013.73;108959;1276;21997;-84
2023/08/12 04:46:34;;;;;;;;;;;;;;;15.29;67.39;101018.22;108982;1281;23624;-83
2023/08/12 04:49:12;;;;;;;15.80;11.30;;;;;;;15.22;67.52;101016.80;109264;1271;23001;-82
2023/08/12 04:51:49;;;;;;;18.90;12.50;;;;;;;15.26;67.60;101019.58;109294;1275;21992;-83
2023/08/12 04:54:40;;;;;;;14.20;11.40;;;;;;;15.34;67.64;101020.08;108994;1274;22403;-84
2023/08/12 04:57:14;;;;;;;15.10;11.10;;;;;;;15.45;67.38;101021.87;109239;1271;22170;-83
2023/08/12 04:59:48;;;;;;;17.10;11.30;;;;;;;15.55;67.28;101025.05;109325;1277;23026;-82
2023/08/12 05:02:21;;;;;;;14.90;12.00;;;;;;;15.68;67.10;101023.39;109348;1277;22292;-83
2023/08/12 05:05:00;;;;;;;19.40;12.60;;;;;;;15.81;66.95;101023.14;108960;1275;22010;-83
2023/08/12 05:07:48;;;;;;;13.10;11.20;;;;;;;15.94;66.67;101025.29;109318;1271;22180;-82
2023/08/12 05:10:49;;;;;;;15.20;11.00;;;;;;;16.06;66.31;101019.10;109670;1274;22113;-80
2023/08/12 05:13:23;;;;;;;16.60;11.40;;;;;;;16.20;65.98;101019.65;109664;1271;22036;-82
2023/08/12 05:15:57;;;;;;;17.90;10.90;;;;;;;16.33;65.59;101019.64;110068;1267;21981;-79
2023/08/12 05:18:43;;;;;;;17.20;11.30;;;;;;;16.48;65.35;101022.44;109913;1270;23158;-80
2023/08/12 05:21:22;;;;;;;10.90;9.80;;;;;;;16.60;65.03;101024.61;110114;1270;21989;-81
2023/08/12 05:24:03;;;;;;;14.70;10.50;;;;;;;16.73;64.69;101022.32;110434;1264;23311;-82
2023/08/12 05:26:48;;;;;;;13.40;11.10;;;;;;;16.90;64.42;101019.16;110635;1265;22291;-81
2023/08/12 05:29:46;;;;;;;14.50;10.60;;;;;;;17.05;63.91;101013.81;110292;1267;22192;-81
2023/08/12 05:32:19;;;;;;;13.00;9.60;;;;;;;17.22;63.57;101014.48;110190;1268;22297;-78
2023/08/12 05:34:53;;;;;;;14.00;10.10;;;;;;;17.40;63.22;101013.49;110130;1268;21974;-81
2023/08/12 05:37:21;;;;;;;10.90;9.70;;;;;;;17.59;62.79;101017.00;110117;1268;22032;-80
2023/08/12 05:39:55;;;;;;;11.90;9.50;;;;;;;17.79;62.34;101012.69;110279;1268;23600;-81
2023/08/12 05:42:43;;;;;;;13.10;9.90;;;;;;;17.99;61.71;101018.44;109924;1268;21986;-83
2023/08/12 05:45:15;;;;;;;14.50;9.00;;;;;;;18.21;61.18;101021.16;109952;1268;22502;-82
2023/08/12 05:47:54;;;;;;;14.20;9.40;;;;;;;18.43;60.61;101019.89;110412;1265;21982;-81
2023/08/12 05:50:26;;;;;;;9.00;7.90;;;;;;;18.66;60.11;101013.90;110689;1265;23760;-80
2023/08/12 05:52:59;;;;;;;13.10;8.70;;;;;;;18.92;59.50;101014.26;110547;1265;21990;-82
2023/08/12 05:55:34;;;;;;;12.50;7.50;;;;;;;19.20;58.74;101011.67;110525;1261;22019;-83
2023/08/12 05:58:09;;;;;;;8.30;7.10;;;;;;;19.45;57.96;101011.44;110928;1261;21962;-80
2023/08/12 06:00:48;;;;;;;11.70;7.40;;;;;;;19.71;57.29;101008.95;110611;1261;23046;-81
2023/08/12 06:03:26;;;;;;;8.40;6.90;;;;;;;19.97;56.52;101006.52;110409;1267;23052;-82
2023/08/12 06:06:06;;;;;;;10.20;7.30;;;;;;;20.25;55.79;101000.53;110475;1266;21992;-81
2023/08/12 06:08:40;;;;;;;13.50;7.40;;;;;;;20.58;55.35;101002.92;109915;1271;22375;-79
2023/08/12 06:11:09;;;;;;;8.60;7.00;;;;;;;20.90;54.62;101007.25;109674;1271;21970;-80
2023/08/12 06:13:49;;;;;;;9.50;6.80;;;;;;;21.22;53.91;101004.41;109302;1276;21999;-81
2023/08/12 06:16:24;;;;;;;9.00;6.20;;;;;;;21.56;53.23;101004.41;109251;1276;21983;-81
2023/08/12 06:19:04;;;;;;;11.10;7.30;;;;;;;21.92;52.42;101003.92;109336;1276;22768;-83
2023/08/12 06:21:46;;;;;;;6.70;5.90;;;;;;;22.31;51.44;101005.58;109560;1272;21996;-83
2023/08/12 06:24:15;;;;;;;7.30;6.40;;;;;;;22.65;50.10;101006.52;109482;1273;23630;-82
2023/08/12 06:26:53;;;;;;;8.70;5.90;;;;;;;22.93;49.36;101003.00;109490;1272;22013;-83
2023/08/12 06:29:27;;;;;;;6.80;5.70;;;;;;;23.20;48.64;101001.14;109530;1272;22448;-82
2023/08/12 06:32:00;;;;;;;7.50;5.20;;;;;;;23.47;47.92;101004.25;109593;1271;22978;-82
2023/08/12 06:34:35;;;;;;;9.70;5.20;;;;;;;23.72;47.30;101005.88;109723;1271;22075;-82
2023/08/12 06:37:10;;;;;;;11.00;6.00;;;;;;;24.01;47.20;101002.10;109859;1271;21986;-81
2023/08/12 06:39:39;;;;;;;12.20;5.50;;;;;;;24.35;46.97;100999.23;109491;1274;21983;-81
2023/08/12 06:42:15;;;;;;;10.10;5.00;;;;;;;24.71;45.99;100997.16;109413;1274;22024;-82
2023/08/12 06:44:58;;;;;;;10.80;5.40;;;;;;;25.06;45.04;100998.57;109522;1270;22439;-82
2023/08/12 06:51:54;;;;;;;5.30;4.70;;;;;;;25.57;44.09;100990.80;108361;1291;23867;-84
2023/08/12 06:54:48;;;;;;;7.20;4.70;;;;;;;25.95;43.64;100990.91;107951;1291;22013;-81
2023/08/12 06:57:29;;;;;;;6.90;3.80;;;;;;;26.30;42.33;100996.98;107792;1292;23709;-83
2023/08/12 07:00:12;;;;;;;7.10;3.90;;;;;;;26.55;41.81;100991.39;108021;1293;22527;-84
2023/08/12 07:03:03;;;;;;;4.00;3.30;;;;;;;26.86;41.18;100990.59;107893;1293;22431;-82
2023/08/12 07:05:38;;;;;;;7.80;4.40;;;;;;;27.21;40.52;100991.87;108108;1286;22070;-83
2023/08/12 07:08:24;;;;;;;5.60;3.30;;;;;;;27.54;39.44;100984.63;108567;1289;21986;-83
2023/08/12 07:11:16;;;;;;;6.00;3.50;;;;;;;27.88;38.78;100985.42;108482;1288;22016;-83
2023/08/12 07:14:13;;;;;;;5.90;3.60;;;;;;;28.23;37.41;100989.64;108469;1289;22023;-84
2023/08/12 07:16:50;;;;;;;6.70;3.60;;;;;;;28.50;36.86;100990.67;108496;1289;21860;-83
2023/08/12 07:19:27;;;;;;;9.10;3.10;;;;;;;28.79;36.21;100988.41;108441;1289;22548;-81
2023/08/12 07:22:16;;;;;;;10.90;7.70;;;;;;;28.97;35.42;100983.08;108737;1285;21985;-80
2023/08/12 07:25:02;;;;;;;6.20;3.20;;;;;;;29.06;34.69;100977.84;108500;1287;23736;-82
2023/08/12 07:27:41;;;;;;;6.50;3.80;;;;;;;28.94;34.20;100976.83;108848;1268;23901;-80
2023/08/12 07:30:23;;;;;;;4.60;3.20;;;;;;;28.74;34.11;100980.67;109600;1269;22829;-80
2023/08/12 07:33:00;;;;;;;4.00;3.00;;;;;;;28.73;34.82;100983.70;109874;1268;21988;-81
2023/08/12 07:35:31;;;;;;;53.20;7.60;;;;;;;28.81;34.59;100984.60;109725;1268;22983;-79
2023/08/12 07:38:05;;;;;;;5.00;2.90;;;;;;;29.03;34.39;100984.58;108782;1272;952262;-85
2023/08/12 07:40:36;;;;;;;10.30;3.00;;;;;;;29.25;33.29;100979.79;109453;1272;21987;-82
2023/08/12 07:43:12;;;;;;;5.10;3.60;;;;;;;29.25;32.67;100976.61;109643;1269;22282;-79
2023/08/12 07:45:44;;;;;;;11.90;4.10;;;;;;;29.20;32.70;100976.49;110154;1266;21978;-81
2023/08/12 07:48:26;;;;;;;11.50;4.90;;;;;;;29.30;32.97;100977.79;109809;1270;22745;-80
2023/08/12 07:51:04;;;;;;;9.70;4.00;;;;;;;29.38;32.04;100979.15;109451;1273;24392;-80
2023/08/12 07:53:45;;;;;;;21.40;6.80;;;;;;;29.48;32.30;100976.27;109626;1273;22021;-79
2023/08/12 07:56:20;;;;;;;9.10;3.50;;;;;;;29.60;31.47;100972.25;109556;1270;22863;-80
2023/08/12 07:58:51;;;;;;;5.00;3.10;;;;;;;29.51;31.56;100968.70;109615;1259;22768;-80
2023/08/12 08:01:24;;;;;;;7.80;3.10;;;;;;;29.46;31.56;100957.14;109712;1265;22022;-82
2023/08/12 08:04:02;;;;;;;3.90;2.50;;;;;;;29.55;31.44;100955.40;109845;1269;22983;-79
2023/08/12 08:06:55;;;;;;;8.70;3.70;;;;;;;29.77;31.39;100954.21;110231;1265;22028;-79
2023/08/12 08:09:24;;;;;;;7.30;3.00;;;;;;;29.99;30.76;100954.60;110625;1260;23695;-79
2023/08/12 08:12:04;;;;;;;3.80;2.50;;;;;;;30.15;30.36;100952.17;110960;1260;22348;-80
2023/08/12 08:14:46;;;;;;;5.70;2.70;;;;;;;30.20;29.67;100953.27;110884;1261;23640;-80
2023/08/12 08:17:31;;;;;;;5.30;2.80;;;;;;;30.17;29.91;100951.30;110996;1261;24942;-80
2023/08/12 08:20:18;;;;;;;3.70;2.50;;;;;;;30.31;30.02;100948.63;110854;1260;21987;-80
2023/08/12 08:22:55;;;;;;;3.70;2.60;;;;;;;30.42;29.28;100948.03;110440;1266;22051;-80
2023/08/12 08:25:31;;;;;;;4.20;2.20;;;;;;;30.32;29.27;100950.13;110096;1266;21987;-80
2023/08/12 08:28:06;;;;;;;5.10;2.30;;;;;;;30.25;29.35;100949.50;109784;1267;22187;-80
2023/08/12 08:30:43;;;;;;;9.90;3.20;;;;;;;30.20;29.20;100945.56;110498;1266;21980;-81
2023/08/12 08:33:12;;;;;;;3.90;2.30;;;;;;;30.29;28.88;100942.05;110392;1265;21857;-80
2023/08/12 08:35:50;;;;;;;4.50;1.90;;;;;;;30.38;28.81;100941.23;109665;1271;21972;-80
2023/08/12 08:38:20;;;;;;;3.60;2.30;;;;;;;30.47;29.12;100938.08;109615;1270;21980;-81
2023/08/12 08:40:58;;;;;;;8.50;2.20;;;;;;;30.52;28.97;100930.48;109427;1272;22015;-79
2023/08/12 08:43:28;;;;;;;8.10;2.90;;;;;;;30.58;28.79;100922.27;109689;1271;23706;-79
2023/08/12 08:45:59;;;;;;;3.20;2.00;;;;;;;30.68;28.92;100926.55;109508;1271;21984;-81
2023/08/12 08:48:37;;;;;;;4.60;2.30;;;;;;;30.65;28.70;100932.48;109467;1271;21992;-79
2023/08/12 08:51:11;;;;;;;4.00;2.40;;;;;;;30.52;28.52;100932.30;109587;1271;23615;-80
2023/08/12 08:53:57;;;;;;;4.20;2.10;;;;;;;30.38;28.50;100931.23;109445;1271;21988;-80
2023/08/12 08:56:59;;;;;;;10.10;2.60;;;;;;;30.23;28.65;100922.10;109899;1271;23592;-81
2023/08/12 08:59:53;;;;;;;3.40;2.10;;;;;;;30.28;29.08;100925.33;110169;1267;22011;-80
2023/08/12 09:02:41;;;;;;;6.20;2.50;;;;;;;30.42;29.24;100926.04;110108;1264;21993;-79
2023/08/12 09:05:17;;;;;;;8.60;2.80;;;;;;;30.63;29.12;100922.25;110396;1266;22987;-80
2023/08/12 09:08:06;;;;;;;6.40;2.10;;;;;;;30.78;29.07;100916.01;110327;1264;23076;-80
2023/08/12 09:10:37;;;;;;;3.70;2.40;;;;;;;30.99;28.92;100911.46;110120;1266;22371;-78
2023/08/12 09:13:11;;;;;;;8.50;2.30;;;;;;;31.15;28.67;100912.64;110781;1261;21967;-78
2023/08/12 09:15:48;;;;;;;8.50;2.20;;;;;;;31.16;28.37;100919.51;110542;1262;22026;-78
2023/08/12 09:18:37;;;;;;;4.30;2.20;;;;;;;31.05;28.05;100921.00;110739;1262;23608;-78
2023/08/12 09:21:21;;;;;;;4.80;2.60;;;;;;;31.03;28.49;100920.45;110379;1265;21998;-78
2023/08/12 09:24:08;;;;;;;8.40;2.80;;;;;;;31.15;28.30;100917.58;110369;1253;22942;-78
2023/08/12 09:27:01;;;;;;;4.30;1.70;;;;;;;31.18;27.87;100916.66;109762;1271;21953;-80
2023/08/12 09:29:39;;;;;;;3.60;1.90;;;;;;;31.20;27.80;100918.36;109665;1271;23844;-78
2023/08/12 09:32:28;;;;;;;3.70;1.90;;;;;;;31.34;27.72;100918.61;109804;1271;21976;-80
2023/08/12 09:35:24;;;;;;;4.20;1.80;;;;;;;31.43;27.28;100917.90;109747;1271;23034;-82
2023/08/12 09:38:22;;;;;;;3.20;1.80;;;;;;;31.30;27.47;100909.33;109843;1271;21987;-81
2023/08/12 09:40:55;;;;;;;4.60;1.70;;;;;;;31.34;27.52;100906.36;110026;1268;22991;-80
2023/08/12 09:43:31;;;;;;;5.40;2.60;;;;;;;31.49;27.87;100898.10;109705;1268;22005;-84
2023/08/12 09:46:07;;;;;;;5.10;2.00;;;;;;;31.60;27.29;100899.73;110535;1261;22231;-79
2023/08/12 09:48:36;;;;;;;5.00;1.80;;;;;;;31.47;27.57;100897.08;110733;1261;22026;-78
2023/08/12 09:51:10;;;;;;;5.90;2.20;;;;;;;31.45;27.32;100891.77;110578;1261;23028;-78
2023/08/12 09:53:51;;;;;;;3.60;1.50;;;;;;;31.53;27.13;100888.10;110025;1267;24047;-78
2023/08/12 09:56:30;;;;;;;4.70;2.30;;;;;;;31.59;27.14;100882.38;109753;1268;22027;-83
2023/08/12 09:59:22;;;;;;;5.80;2.10;;;;;;;31.86;27.42;100884.33;109757;1268;22024;-83
2023/08/12 10:02:20;;;;;;;19.50;6.00;;;;;;;32.03;26.92;100882.18;110127;1268;23851;-80
2023/08/12 10:05:21;;;;;;;6.70;1.80;;;;;;;32.03;27.17;100878.02;109519;1273;22002;-83
2023/08/12 10:08:03;;;;;;;3.80;2.10;;;;;;;31.99;27.22;100879.63;109501;1274;22122;-80
2023/08/12 10:10:36;;;;;;;4.90;2.20;;;;;;;31.98;27.55;100880.27;109654;1274;21952;-82
2023/08/12 10:13:24;;;;;;;;;;;;;;;;;;;;;
2023/08/12 10:16:13;;;;;;;6.70;2.00;;;;;;;31.77;27.17;100871.74;109895;1268;23887;-80
2023/08/12 10:19:34;;;;;;;4.40;2.00;;;;;;;31.69;27.62;100874.32;110095;1268;21959;-80
2023/08/12 10:22:25;;;;;;;8.40;2.40;;;;;;;31.81;28.03;100870.55;110429;1264;22011;-81
2023/08/12 10:25:21;;;;;;;10.70;3.20;;;;;;;31.99;27.77;100863.18;110239;1268;21986;-80
2023/08/12 10:28:08;;;;;;;7.10;2.30;;;;;;;32.16;27.51;100861.14;109626;1272;21943;-80
2023/08/12 10:30:44;;;;;;;12.90;2.50;;;;;;;32.32;27.46;100861.85;109655;1272;21978;-79
2023/08/12 10:33:24;;;;;;;6.20;1.80;;;;;;;32.24;26.88;100862.99;109233;1277;23625;-79
2023/08/12 10:35:58;;;;;;;6.60;2.30;;;;;;;31.94;27.28;100862.02;109193;1276;21996;-80
2023/08/12 10:38:55;;;;;;;5.00;2.10;;;;;;;31.68;27.49;100857.95;109136;1277;21994;-81
2023/08/12 10:42:05;;;;;;;25.00;4.10;;;;;;;31.41;27.99;100845.23;109240;1277;23050;-82
2023/08/12 10:45:12;;;;;;;6.00;2.00;;;;;;;31.38;28.22;100846.70;109487;1273;21969;-80
2023/08/12 10:48:25;;;;;;;2.90;2.00;;;;;;;31.42;28.19;100847.14;109745;1246;21929;31
2023/08/12 10:51:39;;;;;;;3.20;1.90;;;;;;;31.39;28.24;100843.55;110892;1262;22742;-84
2023/08/12 10:57:18;;;;;;;3.50;1.70;;;;;;;31.25;28.29;100840.91;110657;1262;21973;-82
2023/08/12 10:59:48;;;;;;;15.00;3.50;;;;;;;31.09;27.97;100837.95;110611;1267;22270;-84
2023/08/12 11:02:42;;;;;;;3.30;1.90;;;;;;;30.98;28.50;100836.89;110514;1267;22127;-81
2023/08/12 11:05:20;;;;;;;1.80;1.40;;;;;;;30.79;28.30;100834.50;109825;1272;22042;-81
2023/08/12 11:08:04;;;;;;;4.50;1.80;;;;;;;30.51;28.36;100832.74;109621;1272;22134;-82
2023/08/12 11:10:40;;;;;;;2.30;1.60;;;;;;;30.26;28.82;100829.63;108951;1279;22013;-81
2023/08/12 11:13:48;;;;;;;6.20;2.40;;;;;;;30.04;28.84;100825.73;109172;1279;23138;-83
2023/08/12 11:16:20;;;;;;;4.00;1.70;;;;;;;29.79;29.61;100821.67;108971;1279;22184;-85
2023/08/12 11:18:57;;;;;;;4.30;1.60;;;;;;;29.65;29.58;100815.50;109109;1276;21988;-83
2023/08/12 11:21:50;;;;;;;8.00;1.70;;;;;;;29.35;29.80;100811.14;109206;1276;22478;-83
2023/08/12 11:24:32;;;;;;;13.20;4.70;;;;;;;29.05;30.54;100805.35;109952;1270;21977;-82
2023/08/12 11:27:58;;;;;;;2.00;1.60;;;;;;;28.93;30.75;100792.50;109928;1270;23490;-83
2023/08/12 11:30:53;;;;;;;;;;;;;;;;;;;;;
2023/08/12 11:33:39;;;;;;;8.30;1.90;;;;;;;28.52;31.41;100786.23;110671;1263;21974;-81
2023/08/12 11:36:10;;;;;;;6.40;1.80;;;;;;;28.40;31.96;100777.83;110649;1264;21972;-82
2023/08/12 11:38:38;;;;;;;25.50;4.20;;;;;;;28.41;32.02;100776.30;110984;1264;21997;-82
2023/08/12 11:41:08;;;;;;;6.00;2.30;;;;;;;28.46;32.07;100783.83;110773;1264;23026;-81
2023/08/12 11:43:39;;;;;;;4.90;1.60;;;;;;;28.48;31.80;100782.89;110557;1264;21975;-81
2023/08/12 11:46:11;;;;;;;5.50;2.20;;;;;;;28.52;32.00;100776.98;110960;1260;23025;-82
2023/08/12 11:48:44;;;;;;;4.00;1.70;;;;;;;28.56;32.15;100777.63;110718;1264;21975;-81
2023/08/12 11:51:14;;;;;;;5.90;2.50;;;;;;;28.58;32.01;100769.80;110790;1264;22301;-80
2023/08/12 11:53:44;;;;;;;6.90;2.10;;;;;;;28.61;31.95;100768.27;110753;1264;23023;-82
2023/08/12 11:56:20;;;;;;;6.50;2.30;;;;;;;28.63;32.07;100768.41;110752;1264;23696;-82
2023/08/12 11:58:54;;;;;;;5.80;3.20;;;;;;;28.66;31.87;100771.20;110501;1264;23723;-80
2023/08/12 12:01:25;;;;;;;2.80;1.90;;;;;;;28.61;31.82;100765.17;110680;1264;23704;-81
2023/08/12 12:04:05;;;;;;;3.90;2.10;;;;;;;28.59;32.02;100762.77;110912;1256;21995;-80
2023/08/12 12:06:40;;;;;;;4.80;2.10;;;;;;;28.62;32.14;100757.56;110435;1269;22734;-80
2023/08/12 12:09:13;;;;;;;5.10;2.50;;;;;;;28.68;31.86;100754.98;110272;1266;21997;-80
2023/08/12 12:11:47;;;;;;;6.10;2.10;;;;;;;28.76;32.07;100752.91;109657;1274;22017;-79
2023/08/12 12:19:18;;;;;;;7.50;4.90;;;;;;;28.89;32.76;100754.20;109391;1274;23147;-79